createdAt,value
2022-11-24T00:01:03.912Z,69.27
2022-11-24T00:03:30.812Z,68.29
2022-11-24T00:06:02.922Z,68.26
2022-11-24T00:08:29.683Z,68.71
2022-11-24T00:10:56.544Z,67.87
2022-11-24T00:13:24.055Z,67.81
2022-11-24T00:15:50.712Z,67.85
2022-11-24T00:18:17.211Z,68.33
2022-11-24T00:20:52.396Z,67.03
2022-11-24T00:23:19.860Z,67.67
2022-11-24T00:25:46.757Z,69.18
2022-11-24T00:28:13.486Z,68.86
2022-11-24T00:30:40.675Z,68.79
2022-11-24T00:33:09.392Z,68.70
2022-11-24T00:35:36.130Z,68.97
2022-11-24T00:38:02.750Z,68.19
2022-11-24T00:40:34.843Z,67.99
2022-11-24T00:43:02.152Z,67.99
2022-11-24T00:45:28.722Z,68.15
2022-11-24T00:47:55.355Z,67.46
2022-11-24T00:50:22.512Z,67.11
2022-11-24T00:52:49.506Z,65.14
2022-11-24T00:55:16.432Z,65.29
2022-11-24T00:57:43.450Z,65.54
2022-11-24T01:00:10.386Z,67.76
2022-11-24T01:02:37.535Z,67.57
2022-11-24T01:05:04.547Z,66.38
2022-11-24T01:07:31.349Z,64.45
2022-11-24T01:09:58.121Z,64.11
2022-11-24T01:12:24.751Z,62.98
2022-11-24T01:14:51.494Z,62.84
2022-11-24T01:17:18.859Z,62.56
2022-11-24T01:19:47.259Z,62.19
2022-11-24T01:22:13.927Z,65.44
2022-11-24T01:24:40.721Z,64.44
2022-11-24T01:27:07.635Z,65.82
2022-11-24T01:29:34.654Z,65.02
2022-11-24T01:32:01.371Z,65.31
2022-11-24T01:34:28.291Z,66.46
2022-11-24T01:36:55.025Z,66.84
2022-11-24T01:39:21.676Z,65.67
2022-11-24T01:41:48.197Z,65.46
2022-11-24T01:44:37.111Z,65.63
2022-11-24T01:47:22.822Z,66.68
2022-11-24T01:49:55.826Z,68.13
2022-11-24T01:52:29.294Z,68.79
2022-11-24T01:54:59.653Z,68.42
2022-11-24T01:57:31.469Z,68.89
2022-11-24T02:00:05.346Z,68.99
2022-11-24T02:02:42.447Z,69.40
2022-11-24T02:05:19.049Z,68.03
2022-11-24T02:07:47.574Z,67.34
2022-11-24T02:10:16.093Z,67.54
2022-11-24T02:12:46.551Z,68.63
2022-11-24T02:15:19.164Z,67.78
2022-11-24T02:17:45.868Z,68.62
2022-11-24T02:20:14.846Z,68.44
2022-11-24T02:22:44.597Z,69.92
2022-11-24T02:25:29.634Z,70.20
2022-11-24T02:27:58.246Z,72.22
2022-11-24T02:30:24.998Z,73.09
2022-11-24T02:32:52.495Z,72.50
2022-11-24T02:35:20.529Z,72.47
2022-11-24T02:37:47.279Z,73.40
2022-11-24T02:40:25.766Z,73.33
2022-11-24T02:43:01.651Z,72.37
2022-11-24T02:45:29.472Z,72.17
2022-11-24T02:47:56.091Z,71.79
2022-11-24T02:50:23.603Z,73.05
2022-11-24T02:52:50.278Z,72.58
2022-11-24T02:55:16.893Z,72.48
2022-11-24T02:57:43.752Z,72.09
2022-11-24T03:00:10.877Z,72.17
2022-11-24T03:02:37.636Z,71.53
2022-11-24T03:05:04.897Z,71.88
2022-11-24T03:07:31.642Z,69.77
2022-11-24T03:09:58.547Z,69.87
2022-11-24T03:12:25.374Z,70.59
2022-11-24T03:14:52.221Z,70.40
2022-11-24T03:17:19.152Z,68.95
2022-11-24T03:19:45.838Z,70.32
2022-11-24T03:22:13.245Z,71.27
2022-11-24T03:24:42.220Z,70.73
2022-11-24T03:27:08.979Z,71.16
2022-11-24T03:29:35.629Z,71.69
2022-11-24T03:32:02.752Z,72.12
2022-11-24T03:34:29.415Z,71.38
2022-11-24T03:36:56.042Z,71.00
2022-11-24T03:39:23.388Z,71.19
2022-11-24T03:41:51.473Z,69.52
2022-11-24T03:44:18.660Z,69.29
2022-11-24T03:46:45.448Z,68.89
2022-11-24T03:49:12.183Z,67.62
2022-11-24T03:51:38.934Z,70.72
2022-11-24T03:54:07.417Z,68.81
2022-11-24T03:56:34.329Z,67.33
2022-11-24T03:59:01.151Z,65.97
2022-11-24T04:01:27.999Z,67.11
2022-11-24T04:03:54.873Z,67.60
2022-11-24T04:06:21.647Z,67.06
2022-11-24T04:08:48.473Z,67.22
2022-11-24T04:11:35.091Z,67.79
2022-11-24T04:14:01.934Z,67.73
2022-11-24T04:16:28.983Z,68.73
2022-11-24T04:18:55.708Z,68.33
2022-11-24T04:21:22.304Z,68.96
2022-11-24T04:23:49.037Z,69.22
2022-11-24T04:26:15.641Z,68.74
2022-11-24T04:28:42.490Z,68.91
2022-11-24T04:31:09.207Z,69.52
2022-11-24T04:33:35.853Z,70.45
2022-11-24T04:36:02.767Z,69.98
2022-11-24T04:39:25.722Z,70.21
2022-11-24T04:41:16.280Z,70.25
2022-11-24T04:43:42.905Z,70.17
2022-11-24T04:46:11.522Z,71.06
2022-11-24T04:48:38.316Z,71.31
2022-11-24T04:51:05.463Z,72.13
2022-11-24T04:53:32.255Z,71.34
2022-11-24T04:55:59.368Z,71.48
2022-11-24T04:58:26.060Z,72.37
2022-11-24T05:00:52.694Z,72.29
2022-11-24T05:03:19.448Z,71.26
2022-11-24T05:05:46.244Z,70.82
2022-11-24T05:08:12.770Z,68.85
2022-11-24T05:10:40.259Z,70.18
2022-11-24T05:13:10.722Z,70.51
2022-11-24T05:15:40.411Z,70.34
2022-11-24T05:18:09.137Z,70.49
2022-11-24T05:20:36.395Z,70.54
2022-11-24T05:23:07.876Z,71.49
2022-11-24T05:25:36.331Z,71.53
2022-11-24T05:28:05.151Z,72.08
2022-11-24T05:30:32.547Z,71.57
2022-11-24T05:32:59.311Z,71.26
2022-11-24T05:35:26.027Z,71.38
2022-11-24T05:37:52.556Z,72.06
2022-11-24T05:40:19.246Z,72.04
2022-11-24T05:42:48.112Z,72.48
2022-11-24T05:45:20.523Z,71.88
2022-11-24T05:47:48.751Z,72.67
2022-11-24T05:50:17.242Z,72.53
2022-11-24T05:52:44.185Z,72.99
2022-11-24T05:55:12.502Z,73.26
2022-11-24T05:57:39.521Z,72.73
2022-11-24T06:00:08.572Z,72.63
2022-11-24T06:02:41.297Z,73.07
2022-11-24T06:05:08.720Z,73.62
2022-11-24T06:07:35.761Z,72.74
2022-11-24T06:10:02.708Z,71.80
2022-11-24T06:12:29.472Z,71.83
2022-11-24T06:14:56.441Z,71.53
2022-11-24T06:17:23.417Z,71.57
2022-11-24T06:19:52.019Z,70.96
2022-11-24T06:22:19.669Z,71.23
2022-11-24T06:24:46.956Z,70.48
2022-11-24T06:27:14.319Z,69.97
2022-11-24T06:29:41.271Z,69.86
2022-11-24T06:32:08.453Z,70.99
2022-11-24T06:34:35.789Z,71.04
2022-11-24T06:37:02.815Z,70.39
2022-11-24T06:39:29.605Z,70.66
2022-11-24T06:41:56.178Z,69.62
2022-11-24T06:44:22.742Z,69.80
2022-11-24T06:46:49.546Z,71.04
2022-11-24T06:49:16.090Z,70.88
2022-11-24T06:51:44.255Z,71.82
2022-11-24T06:54:14.744Z,72.16
2022-11-24T06:56:41.790Z,72.11
2022-11-24T06:59:18.588Z,71.01
2022-11-24T07:01:45.853Z,71.74
2022-11-24T07:04:13.741Z,72.15
2022-11-24T07:06:41.599Z,72.56
2022-11-24T07:09:13.399Z,71.09
2022-11-24T07:11:41.456Z,71.56
2022-11-24T07:14:09.001Z,72.89
2022-11-24T07:16:35.961Z,72.78
2022-11-24T07:19:02.969Z,74.00
2022-11-24T07:21:30.875Z,72.72
2022-11-24T07:23:58.552Z,73.10
2022-11-24T07:26:26.027Z,72.78
2022-11-24T07:28:52.922Z,72.88
2022-11-24T07:31:26.666Z,71.86
2022-11-24T07:33:55.030Z,72.99
2022-11-24T07:36:22.559Z,73.36
2022-11-24T07:38:49.836Z,72.80
2022-11-24T07:41:19.802Z,72.59
2022-11-24T07:43:48.098Z,73.24
2022-11-24T07:46:17.408Z,72.63
2022-11-24T07:48:44.348Z,72.15
2022-11-24T07:51:11.280Z,73.44
2022-11-24T07:53:38.702Z,72.18
2022-11-24T07:56:06.492Z,72.34
2022-11-24T07:58:36.013Z,72.88
2022-11-24T08:01:17.056Z,72.42
2022-11-24T08:03:45.697Z,72.53
2022-11-24T08:06:24.490Z,72.18
2022-11-24T08:08:52.994Z,71.59
2022-11-24T08:11:19.772Z,71.58
2022-11-24T08:13:46.370Z,70.93
2022-11-24T08:16:16.091Z,72.41
2022-11-24T08:18:43.401Z,71.83
2022-11-24T08:21:14.485Z,70.61
2022-11-24T08:23:41.873Z,70.46
2022-11-24T08:26:15.645Z,70.45
2022-11-24T08:28:42.485Z,72.25
2022-11-24T08:31:10.105Z,73.02
2022-11-24T08:33:37.134Z,72.69
2022-11-24T08:36:06.542Z,72.96
2022-11-24T08:38:33.216Z,72.83
2022-11-24T08:41:07.639Z,73.32
2022-11-24T08:43:34.783Z,72.08
2022-11-24T08:46:03.019Z,73.14
2022-11-24T08:48:30.009Z,73.61
2022-11-24T08:50:57.671Z,72.11
2022-11-24T08:53:24.507Z,72.78
2022-11-24T08:55:51.254Z,72.71
2022-11-24T08:58:17.772Z,72.65
2022-11-24T09:00:44.650Z,71.99
2022-11-24T09:03:15.829Z,71.93
2022-11-24T09:05:58.007Z,71.42
2022-11-24T09:08:24.663Z,73.33
2022-11-24T09:10:51.651Z,72.42
2022-11-24T09:13:18.343Z,71.92
2022-11-24T09:15:44.847Z,71.32
2022-11-24T09:18:11.421Z,71.43
2022-11-24T09:20:38.407Z,72.19
2022-11-24T09:23:05.207Z,70.66
2022-11-24T09:25:31.647Z,71.08
2022-11-24T09:27:59.942Z,71.73
2022-11-24T09:30:26.885Z,71.80
2022-11-24T09:32:56.813Z,72.65
2022-11-24T09:35:24.563Z,72.15
2022-11-24T09:37:51.319Z,72.50
2022-11-24T09:40:18.121Z,72.13
2022-11-24T09:42:53.962Z,72.27
2022-11-24T09:46:03.786Z,70.38
2022-11-24T09:48:41.034Z,70.17
2022-11-24T09:51:13.616Z,70.70
2022-11-24T09:53:56.945Z,71.18
2022-11-24T09:56:26.846Z,70.53
2022-11-24T09:59:05.155Z,70.99
2022-11-24T10:01:37.382Z,70.39
2022-11-24T10:04:16.304Z,70.57
2022-11-24T10:06:59.343Z,70.89
2022-11-24T10:09:33.988Z,70.14
2022-11-24T10:12:13.676Z,70.88
2022-11-24T10:14:55.616Z,70.21
2022-11-24T10:17:59.855Z,70.99
2022-11-24T10:20:32.920Z,71.07
2022-11-24T10:23:18.393Z,70.57
2022-11-24T10:25:58.804Z,69.03
2022-11-24T10:28:35.122Z,71.54
2022-11-24T10:31:32.501Z,72.19
2022-11-24T10:34:04.373Z,71.60
2022-11-24T10:36:48.416Z,71.09
2022-11-24T10:39:18.582Z,71.00
2022-11-24T10:41:57.870Z,71.84
2022-11-24T10:44:25.060Z,71.64
2022-11-24T10:46:52.460Z,71.93
2022-11-24T10:49:24.897Z,71.56
2022-11-24T10:52:12.525Z,71.85
2022-11-24T10:55:04.211Z,72.15
2022-11-24T10:57:34.198Z,71.35
2022-11-24T11:00:04.697Z,70.04
2022-11-24T11:02:40.298Z,71.08
2022-11-24T11:05:42.391Z,70.32
2022-11-24T11:08:32.237Z,70.30
2022-11-24T11:11:25.916Z,69.75
2022-11-24T11:13:58.246Z,69.27
2022-11-24T11:16:39.076Z,69.05
2022-11-24T11:19:54.350Z,68.01
2022-11-24T11:22:37.284Z,66.90
2022-11-24T11:25:07.410Z,67.84
2022-11-24T11:27:34.124Z,66.52
2022-11-24T11:35:51.244Z,67.57
2022-11-24T11:38:18.803Z,66.29
2022-11-24T11:40:49.562Z,66.93
2022-11-24T11:43:27.473Z,67.94
2022-11-24T11:46:11.395Z,67.89
2022-11-24T11:48:43.493Z,66.64
2022-11-24T11:51:26.272Z,68.71
2022-11-24T11:54:02.186Z,68.11
2022-11-24T11:56:33.181Z,66.65
2022-11-24T11:59:21.558Z,66.51
2022-11-24T12:02:06.899Z,65.30
2022-11-24T12:04:57.705Z,63.70
2022-11-24T12:07:43.089Z,65.68
2022-11-24T12:10:35.902Z,66.44
2022-11-24T12:13:08.924Z,68.74
2022-11-24T12:15:56.298Z,69.13
2022-11-24T12:18:58.656Z,67.73
2022-11-24T12:21:37.695Z,66.55
2022-11-24T12:24:23.342Z,66.46
2022-11-24T12:27:22.218Z,65.72
2022-11-24T12:30:02.436Z,63.95
2022-11-24T12:33:00.704Z,63.68
2022-11-24T12:35:37.574Z,64.02
2022-11-24T12:38:23.267Z,64.31
2022-11-24T12:41:39.571Z,64.69
2022-11-24T12:44:00.703Z,65.48
2022-11-24T12:46:59.312Z,65.91
2022-11-24T12:49:47.103Z,66.31
2022-11-24T12:52:23.791Z,66.39
2022-11-24T12:54:50.531Z,67.08
2022-11-24T12:57:39.439Z,67.73
2022-11-24T13:00:23.429Z,68.82
2022-11-24T13:03:11.506Z,68.43
2022-11-24T13:06:01.573Z,68.79
2022-11-24T13:08:30.386Z,68.40
2022-11-24T13:11:23.076Z,68.40
2022-11-24T13:14:01.220Z,68.43
2022-11-24T13:16:36.237Z,68.87
2022-11-24T13:19:17.249Z,68.03
2022-11-24T13:21:45.669Z,67.60
2022-11-24T13:24:19.492Z,68.04
2022-11-24T13:26:52.953Z,68.31
2022-11-24T13:29:33.523Z,69.44
2022-11-24T13:32:02.870Z,69.73
2022-11-24T13:34:38.769Z,68.29
2022-11-24T13:37:31.352Z,68.54
2022-11-24T13:40:13.367Z,67.41
2022-11-24T13:42:56.220Z,67.33
2022-11-24T13:45:41.938Z,67.31
2022-11-24T13:48:21.644Z,65.17
2022-11-24T13:50:52.167Z,64.84
2022-11-24T13:53:25.701Z,64.20
2022-11-24T13:56:00.672Z,65.65
2022-11-24T13:58:38.243Z,64.59
2022-11-24T14:01:26.515Z,63.67
2022-11-24T14:06:53.980Z,62.98
2022-11-24T14:09:26.765Z,63.24
2022-11-24T14:12:15.954Z,63.45
2022-11-24T14:14:44.659Z,63.58
2022-11-24T14:17:17.592Z,66.43
2022-11-24T14:19:50.485Z,67.85
2022-11-24T14:22:22.931Z,68.93
2022-11-24T14:24:58.066Z,67.19
2022-11-24T14:27:37.713Z,65.63
2022-11-24T14:30:16.909Z,64.70
2022-11-24T14:32:58.430Z,64.26
2022-11-24T14:35:29.185Z,64.10
2022-11-24T14:37:56.054Z,65.24
2022-11-24T14:40:48.368Z,66.47
2022-11-24T14:43:27.156Z,64.99
2022-11-24T14:45:55.764Z,64.59
2022-11-24T14:48:31.652Z,64.61
2022-11-24T14:51:08.796Z,63.86
2022-11-24T14:53:35.719Z,64.25
2022-11-24T14:56:38.960Z,63.72
2022-11-24T14:59:22.127Z,63.72
2022-11-24T15:01:49.039Z,64.16
2022-11-24T15:04:46.256Z,65.21
2022-11-24T15:07:25.785Z,67.41
2022-11-24T15:09:54.015Z,67.66
2022-11-24T15:12:38.047Z,66.68
2022-11-24T15:15:13.906Z,66.18
2022-11-24T15:17:49.623Z,65.52
2022-11-24T15:20:27.854Z,64.21
2022-11-24T15:23:13.403Z,63.81
2022-11-24T15:25:40.541Z,65.42
2022-11-24T15:28:08.999Z,64.53
2022-11-24T15:30:36.985Z,64.57
2022-11-24T15:33:11.608Z,66.01
2022-11-24T15:35:38.363Z,64.46
2022-11-24T15:38:04.928Z,63.57
2022-11-24T15:40:32.964Z,64.14
2022-11-24T15:43:06.151Z,64.05
2022-11-24T15:45:34.297Z,63.73
2022-11-24T15:48:01.294Z,63.59
2022-11-24T15:50:28.012Z,64.58
2022-11-24T15:52:57.097Z,66.01
2022-11-24T15:55:23.768Z,65.27
2022-11-24T15:57:50.493Z,65.08
2022-11-24T16:00:23.724Z,67.06
2022-11-24T16:02:50.587Z,69.52
2022-11-24T16:05:17.957Z,69.50
2022-11-24T16:07:45.104Z,69.07
2022-11-24T16:10:40.502Z,70.41
2022-11-24T16:13:07.348Z,71.26
2022-11-24T16:15:34.103Z,71.62
2022-11-24T16:18:01.792Z,72.16
2022-11-24T16:20:28.479Z,72.17
2022-11-24T16:22:54.999Z,71.14
2022-11-24T16:25:21.884Z,71.00
2022-11-24T16:27:49.726Z,70.48
2022-11-24T16:30:16.738Z,70.34
2022-11-24T16:32:43.570Z,69.68
2022-11-24T16:35:10.313Z,70.23
2022-11-24T16:37:37.139Z,69.23
2022-11-24T16:40:04.206Z,69.53
2022-11-24T16:42:31.463Z,70.22
2022-11-24T16:44:58.245Z,70.12
2022-11-24T16:47:25.676Z,70.94
2022-11-24T16:49:52.357Z,70.24
2022-11-24T16:52:19.197Z,70.45
2022-11-24T16:54:47.639Z,70.51
2022-11-24T16:57:15.631Z,70.04
2022-11-24T16:59:46.239Z,69.97
2022-11-24T17:02:16.145Z,70.52
2022-11-24T17:04:43.073Z,69.84
2022-11-24T17:07:09.688Z,70.61
2022-11-24T17:09:40.570Z,70.53
2022-11-24T17:12:08.175Z,70.82
2022-11-24T17:14:36.087Z,71.63
2022-11-24T17:17:05.095Z,71.50
2022-11-24T17:19:31.938Z,70.50
2022-11-24T17:21:59.108Z,71.05
2022-11-24T17:24:25.704Z,69.79
2022-11-24T17:26:52.339Z,70.13
2022-11-24T17:29:19.107Z,71.07
2022-11-24T17:31:46.212Z,70.59
2022-11-24T17:34:13.404Z,70.64
2022-11-24T17:36:41.599Z,69.41
2022-11-24T17:39:09.593Z,69.68
2022-11-24T17:41:36.412Z,70.30
2022-11-24T17:44:03.395Z,69.00
2022-11-24T17:46:30.965Z,68.86
2022-11-24T17:48:58.136Z,70.17
2022-11-24T17:51:26.258Z,69.30
2022-11-24T17:53:57.562Z,67.83
2022-11-24T17:56:27.201Z,69.14
2022-11-24T17:58:56.043Z,68.72
2022-11-24T18:01:23.404Z,68.71
2022-11-24T18:03:53.410Z,70.40
2022-11-24T18:06:24.124Z,68.32
2022-11-24T18:08:53.260Z,67.97
2022-11-24T18:11:30.896Z,68.75
2022-11-24T18:14:01.724Z,70.48
2022-11-24T18:16:30.426Z,69.77
2022-11-24T18:19:14.603Z,70.17
2022-11-24T18:21:43.890Z,71.09
2022-11-24T18:24:11.924Z,71.88
2022-11-24T18:26:42.372Z,71.87
2022-11-24T18:29:11.076Z,71.84
2022-11-24T18:31:38.395Z,73.20
2022-11-24T18:34:06.113Z,72.55
2022-11-24T18:36:33.606Z,72.67
2022-11-24T18:39:01.853Z,73.02
2022-11-24T18:41:28.674Z,72.39
2022-11-24T18:43:55.252Z,71.91
2022-11-24T18:46:22.225Z,72.94
2022-11-24T18:48:49.004Z,72.86
2022-11-24T18:51:15.852Z,72.51
2022-11-24T18:53:44.367Z,72.67
2022-11-24T18:56:17.944Z,72.33
2022-11-24T18:58:44.881Z,71.87
2022-11-24T19:01:20.052Z,72.04
2022-11-24T19:03:50.134Z,72.84
2022-11-24T19:06:23.222Z,72.96
2022-11-24T19:08:53.889Z,72.21
2022-11-24T19:11:23.895Z,72.26
2022-11-24T19:13:51.397Z,72.89
2022-11-24T19:16:20.235Z,73.12
2022-11-24T19:18:54.150Z,73.18
2022-11-24T19:21:23.227Z,73.05
2022-11-24T19:23:53.087Z,72.66
2022-11-24T19:26:19.973Z,72.84
2022-11-24T19:28:47.854Z,71.58
2022-11-24T19:31:17.126Z,71.81
2022-11-24T19:33:44.209Z,71.74
2022-11-24T19:36:12.149Z,71.41
2022-11-24T19:38:39.486Z,71.93
2022-11-24T19:41:11.997Z,72.02
2022-11-24T19:43:40.320Z,73.10
2022-11-24T19:46:10.833Z,73.38
2022-11-24T19:48:39.895Z,72.52
2022-11-24T19:51:16.442Z,73.30
2022-11-24T19:53:43.844Z,73.97
2022-11-24T19:56:22.478Z,75.11
2022-11-24T19:58:50.378Z,75.16
2022-11-24T20:01:24.618Z,75.47
2022-11-24T20:03:55.970Z,75.33
2022-11-24T20:06:22.676Z,74.94
2022-11-24T20:08:49.393Z,74.31
2022-11-24T20:11:17.561Z,73.60
2022-11-24T20:13:46.563Z,73.44
2022-11-24T20:16:16.113Z,74.07
2022-11-24T20:18:44.729Z,74.08
2022-11-24T20:21:19.250Z,74.21
2022-11-24T20:23:52.532Z,73.86
2022-11-24T20:26:22.912Z,73.43
2022-11-24T20:28:51.942Z,72.59
2022-11-24T20:31:21.577Z,73.74
2022-11-24T20:33:48.864Z,72.14
2022-11-24T20:36:21.559Z,72.25
2022-11-24T20:38:49.177Z,72.83
2022-11-24T20:41:31.960Z,72.58
2022-11-24T20:44:00.914Z,72.49
2022-11-24T20:46:30.693Z,71.06
2022-11-24T20:48:58.219Z,70.26
2022-11-24T20:51:31.421Z,70.02
2022-11-24T20:54:00.520Z,69.99
2022-11-24T20:56:29.754Z,69.82
2022-11-24T20:58:57.005Z,68.52
2022-11-24T21:01:30.445Z,67.76
2022-11-24T21:03:59.622Z,68.53
2022-11-24T21:06:30.461Z,68.88
2022-11-24T21:09:03.294Z,67.55
2022-11-24T21:11:31.182Z,68.15
2022-11-24T21:13:59.253Z,69.52
2022-11-24T21:16:28.574Z,70.16
2022-11-24T21:18:57.868Z,69.93
2022-11-24T21:21:33.449Z,69.05
2022-11-24T21:24:09.717Z,71.70
2022-11-24T21:26:38.276Z,72.70
2022-11-24T21:29:06.729Z,72.16
2022-11-24T21:31:38.455Z,72.03
2022-11-24T21:34:06.658Z,72.05
2022-11-24T21:36:35.015Z,72.54
2022-11-24T21:39:03.072Z,72.29
2022-11-24T21:41:33.899Z,71.70
2022-11-24T21:44:00.707Z,73.74
2022-11-24T21:46:29.281Z,72.57
2022-11-24T21:48:56.032Z,72.49
2022-11-24T21:51:22.913Z,71.94
2022-11-24T21:53:49.638Z,73.09
2022-11-24T21:56:21.850Z,72.29
2022-11-24T21:58:51.433Z,71.79
2022-11-24T22:01:20.745Z,72.94
2022-11-24T22:03:47.539Z,72.44
2022-11-24T22:06:15.329Z,71.90
2022-11-24T22:08:42.065Z,72.12
2022-11-24T22:11:17.548Z,71.61
2022-11-24T22:13:45.592Z,71.91
2022-11-24T22:16:24.270Z,72.97
2022-11-24T22:18:51.494Z,73.52
2022-11-24T22:21:25.237Z,71.96
2022-11-24T22:23:52.931Z,72.37
2022-11-24T22:26:21.605Z,72.82
2022-11-24T22:28:48.728Z,72.76
2022-11-24T22:31:19.660Z,72.88
2022-11-24T22:33:46.713Z,72.92
2022-11-24T22:36:14.739Z,72.63
2022-11-24T22:38:41.990Z,73.32
2022-11-24T22:41:11.461Z,72.22
2022-11-24T22:43:39.832Z,71.85
2022-11-24T22:46:12.115Z,71.72
2022-11-24T22:48:39.645Z,71.46
2022-11-24T22:51:11.823Z,72.07
2022-11-24T22:53:40.663Z,72.78
2022-11-24T22:56:11.877Z,72.63
2022-11-24T22:58:39.949Z,71.49
2022-11-24T23:01:11.854Z,71.76
2022-11-24T23:03:40.846Z,72.08
2022-11-24T23:06:21.238Z,71.78
2022-11-24T23:08:49.376Z,70.83
2022-11-24T23:11:36.445Z,71.50
2022-11-24T23:14:20.900Z,70.11
2022-11-24T23:16:47.726Z,70.00
2022-11-24T23:19:14.400Z,68.56
2022-11-24T23:21:44.043Z,69.04
2022-11-24T23:24:11.155Z,70.28
2022-11-24T23:26:40.451Z,70.59
2022-11-24T23:29:08.063Z,70.91
2022-11-24T23:31:36.436Z,70.56
2022-11-24T23:34:03.989Z,69.60
2022-11-24T23:36:32.727Z,70.13
2022-11-24T23:39:08.679Z,70.36
2022-11-24T23:41:35.489Z,70.82
2022-11-24T23:44:02.041Z,70.69
2022-11-24T23:46:29.367Z,70.54
2022-11-24T23:48:56.882Z,71.87
2022-11-24T23:51:28.816Z,71.47
2022-11-24T23:53:56.519Z,71.04
2022-11-24T23:56:25.851Z,71.64
2022-11-24T23:58:52.947Z,70.57
